createdAt,value
2018-04-04T00:00:59.243Z,0
2018-04-04T00:01:59.212Z,0
2018-04-04T00:02:59.404Z,0
2018-04-04T00:03:59.169Z,0
2018-04-04T00:04:59.150Z,0
2018-04-04T00:05:59.353Z,0
2018-04-04T00:06:59.106Z,0
2018-04-04T00:07:59.082Z,0
2018-04-04T00:08:59.077Z,0
2018-04-04T00:09:59.037Z,0
2018-04-04T00:10:58.764Z,0
2018-04-04T00:11:58.498Z,0
2018-04-04T00:12:58.979Z,0
2018-04-04T00:13:58.702Z,0
2018-04-04T00:14:58.678Z,0
2018-04-04T00:15:58.662Z,0
2018-04-04T00:16:58.896Z,0
2018-04-04T00:17:58.864Z,0
2018-04-04T00:18:58.845Z,0
2018-04-04T00:19:58.825Z,0
2018-04-04T00:20:58.797Z,0
2018-04-04T00:21:58.784Z,0
2018-04-04T00:22:58.512Z,0
2018-04-04T00:23:59.353Z,0
2018-04-04T00:24:58.457Z,0
2018-04-04T00:25:58.689Z,0
2018-04-04T00:26:58.665Z,0
2018-04-04T00:27:58.644Z,0
2018-04-04T00:28:58.623Z,0
2018-04-04T00:29:58.124Z,0
2018-04-04T00:30:58.587Z,0
2018-04-04T00:31:58.556Z,0
2018-04-04T00:32:58.536Z,0
2018-04-04T00:33:58.511Z,0
2018-04-04T00:34:58.490Z,0
2018-04-04T00:35:58.218Z,0
2018-04-04T00:36:58.191Z,0
2018-04-04T00:37:58.429Z,0
2018-04-04T00:38:58.407Z,0
2018-04-04T00:39:58.122Z,0
2018-04-04T00:40:58.357Z,0
2018-04-04T00:41:58.351Z,0
2018-04-04T00:42:58.311Z,0
2018-04-04T00:43:58.283Z,0
2018-04-04T00:44:58.269Z,0
2018-04-04T00:45:58.243Z,0
2018-04-04T00:46:58.837Z,0
2018-04-04T00:47:58.577Z,0
2018-04-04T00:48:58.215Z,0
2018-04-04T00:49:57.905Z,0
2018-04-04T00:50:58.138Z,0
2018-04-04T00:51:57.858Z,0
2018-04-04T00:52:58.081Z,0
2018-04-04T00:53:57.815Z,0
2018-04-04T00:54:58.039Z,0
2018-04-04T00:55:58.020Z,0
2018-04-04T00:56:57.991Z,0
2018-04-04T00:57:57.969Z,0
2018-04-04T00:58:57.701Z,0
2018-04-04T00:59:57.672Z,0
2018-04-04T01:00:57.900Z,0
2018-04-04T01:01:57.875Z,0
2018-04-04T01:02:57.862Z,0
2018-04-04T01:03:57.581Z,0
2018-04-04T01:04:57.810Z,0
2018-04-04T01:05:57.790Z,0
2018-04-04T01:06:57.771Z,0
2018-04-04T01:07:57.878Z,0
2018-04-04T01:08:57.473Z,0
2018-04-04T01:09:57.446Z,0
2018-04-04T01:10:57.677Z,0
2018-04-04T01:11:57.649Z,0
2018-04-04T01:12:57.126Z,0
2018-04-04T01:13:57.601Z,0
2018-04-04T01:14:57.332Z,0
2018-04-04T01:15:57.313Z,0
2018-04-04T01:16:57.041Z,0
2018-04-04T01:17:57.524Z,0
2018-04-04T01:18:57.237Z,0
2018-04-04T01:19:56.959Z,0
2018-04-04T01:20:57.192Z,0
2018-04-04T01:21:57.421Z,0
2018-04-04T01:22:57.146Z,0
2018-04-04T01:23:57.122Z,0
2018-04-04T01:24:57.109Z,0
2018-04-04T01:25:57.079Z,0
2018-04-04T01:26:57.296Z,0
2018-04-04T01:27:57.272Z,0
2018-04-04T01:28:57.248Z,0
2018-04-04T01:29:57.236Z,0
2018-04-04T01:30:56.958Z,0
2018-04-04T01:31:56.939Z,0
2018-04-04T01:32:56.915Z,0
2018-04-04T01:33:57.135Z,0
2018-04-04T01:34:56.617Z,0
2018-04-04T01:35:57.094Z,0
2018-04-04T01:36:56.818Z,0
2018-04-04T01:37:57.046Z,0
2018-04-04T01:38:56.782Z,0
2018-04-04T01:39:56.999Z,0
2018-04-04T01:40:56.727Z,0
2018-04-04T01:41:56.947Z,0
2018-04-04T01:42:56.935Z,0
2018-04-04T01:43:56.661Z,0
2018-04-04T01:44:56.886Z,0
2018-04-04T01:45:56.848Z,0
2018-04-04T01:46:56.335Z,0
2018-04-04T01:47:56.807Z,0
2018-04-04T01:48:56.788Z,0
2018-04-04T01:49:56.521Z,0
2018-04-04T01:50:56.738Z,0
2018-04-04T01:51:56.710Z,0
2018-04-04T01:52:56.439Z,0
2018-04-04T01:53:56.421Z,0
2018-04-04T01:54:56.640Z,0
2018-04-04T01:55:56.377Z,0
2018-04-04T01:56:56.648Z,0
2018-04-04T01:57:56.571Z,0
2018-04-04T01:58:56.552Z,0
2018-04-04T01:59:56.275Z,0
2018-04-04T02:00:56.501Z,0
2018-04-04T02:01:56.480Z,0
2018-04-04T02:02:56.475Z,0
2018-04-04T02:03:56.438Z,0
2018-04-04T02:04:56.158Z,0
2018-04-04T02:05:56.134Z,0
2018-04-04T02:06:56.118Z,0
2018-04-04T02:07:55.590Z,0
2018-04-04T02:08:56.069Z,0
2018-04-04T02:09:56.039Z,0
2018-04-04T02:10:56.027Z,0
2018-04-04T02:11:55.997Z,0
2018-04-04T02:12:56.240Z,0
2018-04-04T02:13:55.947Z,0
2018-04-04T02:14:55.930Z,0
2018-04-04T02:15:56.211Z,0
2018-04-04T02:16:56.135Z,0
2018-04-04T02:17:56.116Z,0
2018-04-04T02:18:55.574Z,0
2018-04-04T02:19:55.800Z,0
2018-04-04T02:20:55.771Z,0
2018-04-04T02:21:56.007Z,0
2018-04-04T02:22:55.981Z,0
2018-04-04T02:23:55.704Z,0
2018-04-04T02:24:55.927Z,0
2018-04-04T02:25:55.909Z,0
2018-04-04T02:26:55.652Z,0
2018-04-04T02:27:55.610Z,0
2018-04-04T02:28:55.833Z,0
2018-04-04T02:29:55.816Z,0
2018-04-04T02:30:55.542Z,0
2018-04-04T02:31:55.770Z,0
2018-04-04T02:32:56.518Z,0
2018-04-04T02:33:55.799Z,0
2018-04-04T02:34:55.702Z,0
2018-04-04T02:35:55.666Z,0
2018-04-04T02:36:55.641Z,0
2018-04-04T02:37:55.617Z,0
2018-04-04T02:38:55.606Z,0
2018-04-04T02:39:55.319Z,0
2018-04-04T02:40:55.552Z,0
2018-04-04T02:41:55.278Z,0
2018-04-04T02:42:55.507Z,0
2018-04-04T02:43:55.516Z,0
2018-04-04T02:44:55.451Z,0
2018-04-04T02:45:55.431Z,0
2018-04-04T02:46:55.405Z,0
2018-04-04T02:47:55.380Z,0
2018-04-04T02:48:55.364Z,0
2018-04-04T02:49:55.327Z,0
2018-04-04T02:50:55.053Z,0
2018-04-04T02:51:55.270Z,0
2018-04-04T02:52:55.276Z,0
2018-04-04T02:53:55.226Z,0
2018-04-04T02:54:55.203Z,0
2018-04-04T02:55:55.190Z,0
2018-04-04T02:56:54.904Z,0
2018-04-04T02:57:55.131Z,0
2018-04-04T02:58:54.856Z,0
2018-04-04T02:59:54.582Z,0
2018-04-04T03:00:55.054Z,0
2018-04-04T03:01:54.532Z,0
2018-04-04T03:02:55.014Z,0
2018-04-04T03:03:54.998Z,0
2018-04-04T03:04:54.953Z,0
2018-04-04T03:05:54.932Z,0
2018-04-04T03:06:54.659Z,0
2018-04-04T03:07:54.650Z,0
2018-04-04T03:08:54.608Z,0
2018-04-04T03:09:54.687Z,0
2018-04-04T03:10:54.808Z,0
2018-04-04T03:11:54.539Z,0
2018-04-04T03:12:54.518Z,0
2018-04-04T03:13:54.748Z,0
2018-04-04T03:14:54.712Z,0
2018-04-04T03:15:54.695Z,0
2018-04-04T03:16:54.473Z,0
2018-04-04T03:17:54.660Z,0
2018-04-04T03:18:54.619Z,0
2018-04-04T03:19:54.333Z,0
2018-04-04T03:20:54.071Z,0
2018-04-04T03:21:54.546Z,0
2018-04-04T03:22:54.506Z,0
2018-04-04T03:23:54.237Z,0
2018-04-04T03:24:54.460Z,0
2018-04-04T03:25:54.199Z,0
2018-04-04T03:26:54.162Z,0
2018-04-04T03:27:54.389Z,0
2018-04-04T03:28:54.363Z,0
2018-04-04T03:29:54.347Z,0
2018-04-04T03:30:54.083Z,0
2018-04-04T03:31:54.298Z,0
2018-04-04T03:32:54.259Z,0
2018-04-04T03:33:54.238Z,0
2018-04-04T03:34:54.215Z,0
2018-04-04T03:35:53.732Z,0
2018-04-04T03:36:54.162Z,0
2018-04-04T03:37:53.897Z,0
2018-04-04T03:38:53.864Z,0
2018-04-04T03:39:53.616Z,0
2018-04-04T03:40:54.066Z,0
2018-04-04T03:41:53.797Z,0
2018-04-04T03:42:54.014Z,0
2018-04-04T03:43:53.760Z,0
2018-04-04T03:44:54.068Z,0
2018-04-04T03:45:53.938Z,0
2018-04-04T03:46:53.667Z,0
2018-04-04T03:47:53.388Z,0
2018-04-04T03:48:53.621Z,0
2018-04-04T03:49:53.835Z,0
2018-04-04T03:50:53.826Z,0
2018-04-04T03:51:53.543Z,0
2018-04-04T03:52:53.517Z,0
2018-04-04T03:53:53.490Z,0
2018-04-04T03:54:53.473Z,0
2018-04-04T03:55:53.187Z,0
2018-04-04T03:56:53.418Z,0
2018-04-04T03:57:53.394Z,0
2018-04-04T03:58:53.377Z,0
2018-04-04T03:59:53.590Z,0
2018-04-04T04:00:53.563Z,0
2018-04-04T04:01:53.289Z,0
2018-04-04T04:02:53.262Z,0
2018-04-04T04:03:53.240Z,0
2018-04-04T04:04:53.463Z,0
2018-04-04T04:05:52.939Z,0
2018-04-04T04:06:53.417Z,0
2018-04-04T04:07:53.390Z,0
2018-04-04T04:08:53.362Z,0
2018-04-04T04:09:53.333Z,0
2018-04-04T04:10:53.306Z,0
2018-04-04T04:11:53.295Z,0
2018-04-04T04:12:53.263Z,0
2018-04-04T04:13:53.864Z,0
2018-04-04T04:14:52.978Z,0
2018-04-04T04:15:53.180Z,0
2018-04-04T04:16:53.148Z,0
2018-04-04T04:17:53.125Z,0
2018-04-04T04:18:53.104Z,0
2018-04-04T04:19:53.081Z,0
2018-04-04T04:20:53.054Z,0
2018-04-04T04:21:52.776Z,0
2018-04-04T04:22:53.014Z,0
2018-04-04T04:23:52.978Z,0
2018-04-04T04:24:52.951Z,0
2018-04-04T04:25:52.922Z,4
2018-04-04T04:26:52.896Z,4
2018-04-04T04:27:52.629Z,4
2018-04-04T04:28:52.850Z,0
2018-04-04T04:29:52.823Z,4
2018-04-04T04:30:52.553Z,4
2018-04-04T04:31:52.771Z,4
2018-04-04T04:32:52.772Z,8
2018-04-04T04:33:52.726Z,8
2018-04-04T04:34:52.464Z,8
2018-04-04T04:35:52.673Z,12
2018-04-04T04:36:52.653Z,16
2018-04-04T04:37:52.627Z,16
2018-04-04T04:38:52.592Z,20
2018-04-04T04:39:52.567Z,24
2018-04-04T04:40:52.543Z,28
2018-04-04T04:41:52.520Z,32
2018-04-04T04:42:51.998Z,40
2018-04-04T04:43:52.470Z,48
2018-04-04T04:44:52.523Z,56
2018-04-04T04:45:52.415Z,64
2018-04-04T04:46:54.484Z,76
2018-04-04T04:47:52.367Z,84
2018-04-04T04:48:52.088Z,96
2018-04-04T04:49:52.075Z,108
2018-04-04T04:50:52.036Z,120
2018-04-04T04:51:51.766Z,140
2018-04-04T04:52:51.992Z,152
2018-04-04T04:53:52.209Z,176
2018-04-04T04:54:52.198Z,200
2018-04-04T04:55:51.908Z,224
2018-04-04T04:56:52.130Z,252
2018-04-04T04:57:52.113Z,280
2018-04-04T04:58:52.079Z,316
2018-04-04T04:59:52.057Z,352
2018-04-04T05:00:52.038Z,392
2018-04-04T05:01:52.018Z,424
2018-04-04T05:02:51.978Z,464
2018-04-04T05:03:51.951Z,504
2018-04-04T05:04:51.929Z,544
2018-04-04T05:05:51.898Z,588
2018-04-04T05:06:51.626Z,636
2018-04-04T05:07:51.850Z,680
2018-04-04T05:08:51.844Z,732
2018-04-04T05:09:51.817Z,788
2018-04-04T05:10:51.768Z,840
2018-04-04T05:11:51.501Z,896
2018-04-04T05:12:51.478Z,956
2018-04-04T05:13:51.449Z,1016
2018-04-04T05:14:51.675Z,1088
2018-04-04T05:15:51.395Z,1156
2018-04-04T05:16:51.623Z,1240
2018-04-04T05:17:51.593Z,1328
2018-04-04T05:18:51.072Z,1396
2018-04-04T05:19:51.048Z,1452
2018-04-04T05:20:51.523Z,1504
2018-04-04T05:21:51.491Z,1560
2018-04-04T05:22:51.464Z,1612
2018-04-04T05:23:50.944Z,1672
2018-04-04T05:24:51.419Z,1736
2018-04-04T05:25:51.148Z,1816
2018-04-04T05:26:50.871Z,1896
2018-04-04T05:27:50.857Z,1972
2018-04-04T05:28:51.314Z,2048
2018-04-04T05:29:50.794Z,2108
2018-04-04T05:30:51.275Z,2200
2018-04-04T05:31:51.001Z,2312
2018-04-04T05:32:50.968Z,2408
2018-04-04T05:33:51.196Z,2524
2018-04-04T05:34:50.914Z,2680
2018-04-04T05:35:50.941Z,2848
2018-04-04T05:36:51.116Z,3028
2018-04-04T05:37:50.847Z,3216
2018-04-04T05:38:50.824Z,3396
2018-04-04T05:39:50.788Z,3536
2018-04-04T05:40:50.766Z,3668
2018-04-04T05:41:50.738Z,3796
2018-04-04T05:42:50.968Z,3916
2018-04-04T05:43:50.953Z,4016
2018-04-04T05:44:50.916Z,4168
2018-04-04T05:45:51.048Z,4344
2018-04-04T05:46:50.872Z,4560
2018-04-04T05:47:50.589Z,4884
2018-04-04T05:48:50.811Z,5316
2018-04-04T05:49:50.788Z,5828
2018-04-04T05:50:50.626Z,6332
2018-04-04T05:51:50.736Z,6632
2018-04-04T05:52:50.462Z,6756
2018-04-04T05:53:50.810Z,6772
2018-04-04T05:54:50.665Z,6680
2018-04-04T05:55:50.640Z,6616
2018-04-04T05:56:50.362Z,6724
2018-04-04T05:57:50.344Z,7132
2018-04-04T05:58:50.317Z,7676
2018-04-04T05:59:50.559Z,7940
2018-04-04T06:00:50.267Z,7836
2018-04-04T06:01:49.750Z,7744
2018-04-04T06:02:50.217Z,7668
2018-04-04T06:03:50.196Z,7628
2018-04-04T06:04:50.420Z,7620
2018-04-04T06:05:50.395Z,7620
2018-04-04T06:06:50.151Z,7620
2018-04-04T06:07:49.853Z,7624
2018-04-04T06:08:50.328Z,7552
2018-04-04T06:09:50.060Z,7456
2018-04-04T06:10:50.280Z,7468
2018-04-04T06:11:50.257Z,7652
2018-04-04T06:12:50.243Z,7828
2018-04-04T06:13:50.207Z,7912
2018-04-04T06:14:49.964Z,7948
2018-04-04T06:15:49.915Z,8128
2018-04-04T06:16:49.649Z,8440
2018-04-04T06:17:50.121Z,8852
2018-04-04T06:18:50.088Z,9336
2018-04-04T06:19:49.833Z,9744
2018-04-04T06:20:50.049Z,10096
2018-04-04T06:21:49.772Z,10444
2018-04-04T06:22:50.106Z,10596
2018-04-04T06:23:49.727Z,10576
2018-04-04T06:24:49.713Z,10492
2018-04-04T06:25:49.932Z,10492
2018-04-04T06:26:49.910Z,10564
2018-04-04T06:27:49.893Z,10596
2018-04-04T06:28:49.624Z,10484
2018-04-04T06:29:49.849Z,10500
2018-04-04T06:30:49.578Z,10452
2018-04-04T06:31:49.867Z,10300
2018-04-04T06:32:49.635Z,10148
2018-04-04T06:33:49.793Z,10292
2018-04-04T06:34:49.769Z,10836
2018-04-04T06:35:49.494Z,11352
2018-04-04T06:36:49.461Z,11772
2018-04-04T06:37:49.672Z,12132
2018-04-04T06:38:49.645Z,11992
2018-04-04T06:39:49.625Z,11776
2018-04-04T06:40:49.369Z,11336
2018-04-04T06:41:49.590Z,11060
2018-04-04T06:42:49.312Z,10776
2018-04-04T06:43:49.044Z,10384
2018-04-04T06:44:49.270Z,9836
2018-04-04T06:45:49.251Z,9356
2018-04-04T06:46:49.479Z,9028
2018-04-04T06:47:49.463Z,8916
2018-04-04T06:48:49.433Z,9012
2018-04-04T06:49:49.448Z,9288
2018-04-04T06:50:49.150Z,9692
2018-04-04T06:51:48.884Z,10100
2018-04-04T06:52:49.370Z,10412
2018-04-04T06:53:49.089Z,10784
2018-04-04T06:54:49.322Z,11244
2018-04-04T06:55:49.073Z,11676
2018-04-04T06:56:48.778Z,11996
2018-04-04T06:57:49.258Z,12228
2018-04-04T06:58:49.272Z,12464
2018-04-04T06:59:50.020Z,13056
2018-04-04T07:00:48.708Z,13900
2018-04-04T07:01:49.053Z,14500
2018-04-04T07:02:49.152Z,14460
2018-04-04T07:03:49.133Z,14080
2018-04-04T07:04:49.147Z,13792
2018-04-04T07:05:49.097Z,13596
2018-04-04T07:06:48.824Z,13140
2018-04-04T07:07:49.249Z,12184
2018-04-04T07:08:48.786Z,10732
2018-04-04T07:09:49.017Z,8892
2018-04-04T07:10:48.813Z,7616
2018-04-04T07:11:49.043Z,7196
2018-04-04T07:12:48.970Z,7412
2018-04-04T07:13:49.146Z,7900
2018-04-04T07:14:49.914Z,8356
2018-04-04T07:15:48.681Z,8560
2018-04-04T07:16:48.637Z,8456
2018-04-04T07:17:48.831Z,8248
2018-04-04T07:18:48.842Z,8292
2018-04-04T07:19:48.830Z,8908
2018-04-04T07:20:48.808Z,10080
2018-04-04T07:21:48.777Z,11120
2018-04-04T07:22:48.534Z,11632
2018-04-04T07:23:48.879Z,11308
2018-04-04T07:24:48.715Z,10632
2018-04-04T07:25:48.447Z,9900
2018-04-04T07:26:48.430Z,9112
2018-04-04T07:27:48.412Z,8512
2018-04-04T07:28:48.139Z,8088
2018-04-04T07:29:48.383Z,7484
2018-04-04T07:30:48.597Z,7008
2018-04-04T07:31:48.590Z,6660
2018-04-04T07:32:48.942Z,6424
2018-04-04T07:33:48.544Z,6352
2018-04-04T07:34:48.267Z,6424
2018-04-04T07:35:48.504Z,6664
2018-04-04T07:36:47.986Z,7172
2018-04-04T07:37:48.209Z,7944
2018-04-04T07:38:47.940Z,8552
2018-04-04T07:39:48.418Z,8644
2018-04-04T07:40:48.151Z,8292
2018-04-04T07:41:47.882Z,7864
2018-04-04T07:42:48.358Z,7268
2018-04-04T07:43:48.090Z,6520
2018-04-04T07:44:48.317Z,5832
2018-04-04T07:45:48.306Z,5712
2018-04-04T07:46:48.288Z,6224
2018-04-04T07:47:48.015Z,6948
2018-04-04T07:48:48.321Z,7616
2018-04-04T07:49:48.213Z,8348
2018-04-04T07:50:47.967Z,8968
2018-04-04T07:51:48.189Z,9368
2018-04-04T07:52:48.164Z,9660
2018-04-04T07:53:48.155Z,10008
2018-04-04T07:54:48.125Z,10376
2018-04-04T07:55:47.848Z,10756
2018-04-04T07:56:47.831Z,11152
2018-04-04T07:57:48.060Z,11440
2018-04-04T07:58:47.543Z,11676
2018-04-04T07:59:48.224Z,11768
2018-04-04T08:00:47.997Z,11780
2018-04-04T08:01:47.730Z,11700
2018-04-04T08:02:47.962Z,11584
2018-04-04T08:03:47.950Z,11616
2018-04-04T08:04:47.420Z,11672
2018-04-04T08:05:48.046Z,11808
2018-04-04T08:06:47.906Z,11964
2018-04-04T08:07:47.856Z,11996
2018-04-04T08:08:47.590Z,11672
2018-04-04T08:09:47.318Z,10988
2018-04-04T08:10:47.544Z,10312
2018-04-04T08:11:47.524Z,9876
2018-04-04T08:12:47.267Z,9696
2018-04-04T08:13:47.246Z,9536
2018-04-04T08:14:47.778Z,9208
2018-04-04T08:15:47.447Z,8780
2018-04-04T08:16:47.686Z,8476
2018-04-04T08:17:47.897Z,8604
2018-04-04T08:18:47.392Z,9080
2018-04-04T08:19:46.873Z,9624
2018-04-04T08:20:47.110Z,10060
2018-04-04T08:21:47.081Z,10448
2018-04-04T08:22:47.562Z,10740
2018-04-04T08:23:47.546Z,10944
2018-04-04T08:24:47.530Z,11128
2018-04-04T08:25:47.502Z,11200
2018-04-04T08:26:47.231Z,11256
2018-04-04T08:27:47.242Z,11368
2018-04-04T08:28:47.205Z,11552
2018-04-04T08:29:47.421Z,11828
2018-04-04T08:30:47.435Z,12176
2018-04-04T08:31:47.384Z,12484
2018-04-04T08:32:47.391Z,12748
2018-04-04T08:33:47.457Z,13144
2018-04-04T08:34:47.577Z,13784
2018-04-04T08:35:47.189Z,14684
2018-04-04T08:36:47.341Z,15708
2018-04-04T08:37:47.262Z,16832
2018-04-04T08:38:47.022Z,18112
2018-04-04T08:39:46.749Z,19232
2018-04-04T08:40:47.212Z,20544
2018-04-04T08:41:47.103Z,22048
2018-04-04T08:42:47.482Z,23424
2018-04-04T08:43:48.190Z,24672
2018-04-04T08:44:46.873Z,25440
2018-04-04T08:45:47.269Z,25728
2018-04-04T08:46:47.202Z,25792
2018-04-04T08:47:46.900Z,26176
2018-04-04T08:48:47.052Z,26144
2018-04-04T08:49:46.783Z,25920
2018-04-04T08:50:46.516Z,25056
2018-04-04T08:51:46.733Z,23648
2018-04-04T08:52:46.974Z,22400
2018-04-04T08:53:46.700Z,21184
2018-04-04T08:54:46.931Z,19840
2018-04-04T08:55:46.414Z,18720
2018-04-04T08:56:46.933Z,17792
2018-04-04T08:57:46.883Z,16792
2018-04-04T08:58:46.857Z,16112
2018-04-04T08:59:46.588Z,15588
2018-04-04T09:00:46.331Z,15184
2018-04-04T09:01:46.798Z,14992
2018-04-04T09:02:46.534Z,15000
2018-04-04T09:03:46.514Z,15048
2018-04-04T09:04:46.243Z,14828
2018-04-04T09:05:46.722Z,14428
2018-04-04T09:06:46.709Z,14460
2018-04-04T09:07:46.695Z,15400
2018-04-04T09:08:46.418Z,17224
2018-04-04T09:09:46.409Z,19328
2018-04-04T09:10:45.885Z,20512
2018-04-04T09:11:46.611Z,20512
2018-04-04T09:12:46.595Z,19392
2018-04-04T09:13:46.336Z,18112
2018-04-04T09:14:46.568Z,17792
2018-04-04T09:15:46.541Z,18752
2018-04-04T09:16:46.528Z,20256
2018-04-04T09:17:46.516Z,21824
2018-04-04T09:18:46.555Z,23136
2018-04-04T09:19:46.467Z,23904
2018-04-04T09:20:46.444Z,24288
2018-04-04T09:21:46.432Z,24992
2018-04-04T09:22:45.911Z,25792
2018-04-04T09:23:46.390Z,26656
2018-04-04T09:24:46.402Z,27488
2018-04-04T09:25:46.354Z,28224
2018-04-04T09:26:46.216Z,28864
2018-04-04T09:27:46.082Z,29056
2018-04-04T09:28:46.056Z,29376
2018-04-04T09:29:46.280Z,29536
2018-04-04T09:30:45.795Z,29600
2018-04-04T09:31:46.250Z,29408
2018-04-04T09:32:46.242Z,29120
2018-04-04T09:33:46.224Z,29056
2018-04-04T09:34:46.208Z,29344
2018-04-04T09:35:45.731Z,30176
2018-04-04T09:36:45.921Z,31808
2018-04-04T09:37:45.900Z,33472
2018-04-04T09:38:46.137Z,33216
2018-04-04T09:39:45.869Z,32160
2018-04-04T09:40:45.859Z,30432
2018-04-04T09:41:45.600Z,28704
2018-04-04T09:42:45.576Z,27680
2018-04-04T09:43:46.051Z,27360
2018-04-04T09:44:46.053Z,27232
2018-04-04T09:45:46.027Z,26752
2018-04-04T09:46:45.764Z,25056
2018-04-04T09:47:45.988Z,23008
2018-04-04T09:48:45.990Z,21344
2018-04-04T09:49:45.973Z,20032
2018-04-04T09:50:45.951Z,18976
2018-04-04T09:51:45.685Z,18752
2018-04-04T09:52:45.918Z,19744
2018-04-04T09:53:45.905Z,21440
2018-04-04T09:54:45.895Z,22912
2018-04-04T09:55:45.873Z,23968
2018-04-04T09:56:45.860Z,24672
2018-04-04T09:57:45.841Z,25504
2018-04-04T09:58:45.584Z,26528
2018-04-04T09:59:45.810Z,26976
2018-04-04T10:00:46.052Z,27424
2018-04-04T10:01:45.284Z,28192
2018-04-04T10:02:45.877Z,29536
2018-04-04T10:03:45.749Z,30720
2018-04-04T10:04:45.740Z,31712
2018-04-04T10:05:45.735Z,32128
2018-04-04T10:06:45.704Z,32224
2018-04-04T10:07:45.792Z,31648
2018-04-04T10:08:45.676Z,30176
2018-04-04T10:09:45.661Z,28448
2018-04-04T10:10:45.654Z,26848
2018-04-04T10:11:45.383Z,25984
2018-04-04T10:12:45.370Z,24576
2018-04-04T10:13:45.598Z,23136
2018-04-04T10:14:45.604Z,21824
2018-04-04T10:15:45.325Z,20608
2018-04-04T10:16:45.313Z,19424
2018-04-04T10:17:45.048Z,18368
2018-04-04T10:18:45.538Z,17564
2018-04-04T10:19:45.280Z,17720
2018-04-04T10:20:45.507Z,18496
2018-04-04T10:21:45.256Z,19584
2018-04-04T10:22:45.224Z,21536
2018-04-04T10:23:45.215Z,23104
2018-04-04T10:24:45.450Z,23584
2018-04-04T10:25:45.430Z,23392
2018-04-04T10:26:45.477Z,23328
2018-04-04T10:27:45.401Z,23232
2018-04-04T10:28:45.387Z,23456
2018-04-04T10:29:45.387Z,23712
2018-04-04T10:30:45.108Z,23968
2018-04-04T10:31:45.094Z,24256
2018-04-04T10:32:45.328Z,24768
2018-04-04T10:33:45.061Z,25408
2018-04-04T10:34:45.050Z,26048
2018-04-04T10:35:45.033Z,26752
2018-04-04T10:36:44.773Z,27520
2018-04-04T10:37:45.254Z,28448
2018-04-04T10:38:45.236Z,29248
2018-04-04T10:39:45.229Z,28992
2018-04-04T10:40:44.959Z,28320
2018-04-04T10:41:45.193Z,28192
2018-04-04T10:42:45.181Z,27648
2018-04-04T10:43:45.178Z,26816
2018-04-04T10:44:45.148Z,26080
2018-04-04T10:45:44.647Z,25472
2018-04-04T10:46:45.120Z,25088
2018-04-04T10:47:45.110Z,24928
2018-04-04T10:48:45.095Z,25152
2018-04-04T10:49:44.837Z,25152
2018-04-04T10:50:45.077Z,25312
2018-04-04T10:51:44.809Z,25888
2018-04-04T10:52:45.041Z,26496
2018-04-04T10:53:45.021Z,26400
2018-04-04T10:54:44.778Z,28416
2018-04-04T10:55:44.754Z,28416
2018-04-04T10:56:44.744Z,28960
2018-04-04T10:57:44.968Z,29440
2018-04-04T10:58:44.715Z,29888
2018-04-04T10:59:44.942Z,30176
2018-04-04T11:00:44.680Z,30624
2018-04-04T11:01:44.913Z,31232
2018-04-04T11:02:44.655Z,31456
2018-04-04T11:03:44.910Z,31520
2018-04-04T11:04:44.628Z,31552
2018-04-04T11:05:44.611Z,31808
2018-04-04T11:06:44.856Z,32352
2018-04-04T11:07:44.833Z,32832
2018-04-04T11:08:44.339Z,32800
2018-04-04T11:09:44.808Z,32832
2018-04-04T11:10:44.792Z,32864
2018-04-04T11:11:44.788Z,32608
2018-04-04T11:12:44.775Z,32288
2018-04-04T11:13:44.511Z,31648
2018-04-04T11:14:44.501Z,31168
2018-04-04T11:15:45.687Z,30688
2018-04-04T11:16:44.227Z,30592
2018-04-04T11:17:44.906Z,30496
2018-04-04T11:18:44.455Z,30528
2018-04-04T11:19:44.685Z,30752
2018-04-04T11:20:44.669Z,30400
2018-04-04T11:21:44.662Z,30048
2018-04-04T11:22:44.405Z,30272
2018-04-04T11:23:44.394Z,31168
2018-04-04T11:24:44.381Z,30304
2018-04-04T11:25:44.358Z,30208
2018-04-04T11:26:44.607Z,30720
2018-04-04T11:27:44.585Z,30528
2018-04-04T11:28:44.333Z,30048
2018-04-04T11:29:44.562Z,29536
2018-04-04T11:30:44.400Z,28992
2018-04-04T11:31:44.289Z,28352
2018-04-04T11:32:44.033Z,28064
2018-04-04T11:33:45.135Z,27744
2018-04-04T11:34:44.256Z,27744
2018-04-04T11:35:44.489Z,27648
2018-04-04T11:36:44.472Z,26496
2018-04-04T11:37:44.465Z,25088
2018-04-04T11:38:44.448Z,23488
2018-04-04T11:39:44.451Z,22656
2018-04-04T11:40:44.432Z,22112
2018-04-04T11:41:44.171Z,20576
2018-04-04T11:42:43.911Z,19904
2018-04-04T11:43:44.198Z,18176
2018-04-04T11:44:44.382Z,16824
2018-04-04T11:45:44.365Z,16688
2018-04-04T11:46:43.899Z,18528
2018-04-04T11:47:44.337Z,19904
2018-04-04T11:48:44.320Z,20704
2018-04-04T11:49:44.064Z,21152
2018-04-04T11:50:44.058Z,21760
2018-04-04T11:51:44.282Z,22112
2018-04-04T11:52:44.270Z,22304
2018-04-04T11:53:44.259Z,22432
2018-04-04T11:54:43.992Z,22496
2018-04-04T11:55:44.222Z,22816
2018-04-04T11:56:43.964Z,22912
2018-04-04T11:57:44.256Z,23072
2018-04-04T11:58:44.382Z,23296
2018-04-04T11:59:44.180Z,23360
2018-04-04T12:00:43.905Z,23424
2018-04-04T12:01:44.142Z,23168
2018-04-04T12:02:44.125Z,22880
2018-04-04T12:03:43.874Z,22848
2018-04-04T12:04:44.106Z,23232
2018-04-04T12:05:44.244Z,23552
2018-04-04T12:06:44.069Z,22752
2018-04-04T12:07:43.802Z,21984
2018-04-04T12:08:44.048Z,23424
2018-04-04T12:09:43.773Z,23456
2018-04-04T12:10:44.031Z,23104
2018-04-04T12:11:43.799Z,23456
2018-04-04T12:12:43.865Z,24288
2018-04-04T12:13:43.475Z,24640
2018-04-04T12:14:43.705Z,24992
2018-04-04T12:15:43.688Z,25568
2018-04-04T12:16:43.630Z,25824
2018-04-04T12:17:43.915Z,24992
2018-04-04T12:18:43.410Z,23872
2018-04-04T12:19:44.202Z,23264
2018-04-04T12:20:43.920Z,23040
2018-04-04T12:21:43.358Z,23616
2018-04-04T12:22:43.835Z,24000
2018-04-04T12:23:43.842Z,23968
2018-04-04T12:24:43.814Z,23680
2018-04-04T12:25:43.305Z,23072
2018-04-04T12:26:43.778Z,22048
2018-04-04T12:27:43.760Z,20864
2018-04-04T12:28:43.757Z,19872
2018-04-04T12:29:43.495Z,18848
2018-04-04T12:30:43.724Z,17664
2018-04-04T12:31:43.722Z,16624
2018-04-04T12:32:43.512Z,17312
2018-04-04T12:33:43.690Z,17952
2018-04-04T12:34:43.423Z,18048
2018-04-04T12:35:43.404Z,18048
2018-04-04T12:36:43.137Z,17568
2018-04-04T12:37:43.624Z,16960
2018-04-04T12:38:43.364Z,16704
2018-04-04T12:39:43.593Z,16904
2018-04-04T12:40:43.582Z,17664
2018-04-04T12:41:43.566Z,18432
2018-04-04T12:42:43.539Z,18880
2018-04-04T12:43:43.283Z,19040
2018-04-04T12:44:43.269Z,19040
2018-04-04T12:45:43.384Z,18720
2018-04-04T12:46:42.988Z,18496
2018-04-04T12:47:43.067Z,18208
2018-04-04T12:48:43.455Z,17824
2018-04-04T12:49:43.437Z,17408
2018-04-04T12:50:43.523Z,16740
2018-04-04T12:51:43.404Z,16112
2018-04-04T12:52:43.397Z,15468
2018-04-04T12:53:44.001Z,14884
2018-04-04T12:54:43.104Z,14568
2018-04-04T12:55:43.396Z,14920
2018-04-04T12:56:43.082Z,15628
2018-04-04T12:57:43.308Z,16324
2018-04-04T12:58:42.798Z,16564
2018-04-04T12:59:42.781Z,16324
2018-04-04T13:00:43.010Z,16068
2018-04-04T13:01:43.246Z,16080
2018-04-04T13:02:43.227Z,16512
2018-04-04T13:03:43.217Z,16988
2018-04-04T13:04:42.701Z,17124
2018-04-04T13:05:43.187Z,16908
2018-04-04T13:06:43.164Z,16288
2018-04-04T13:07:42.895Z,15484
2018-04-04T13:08:42.633Z,14852
2018-04-04T13:09:43.125Z,14416
2018-04-04T13:10:42.849Z,13984
2018-04-04T13:11:42.829Z,13592
2018-04-04T13:12:42.818Z,13264
2018-04-04T13:13:43.048Z,12960
2018-04-04T13:14:43.025Z,12572
2018-04-04T13:15:42.767Z,12116
2018-04-04T13:16:42.995Z,11720
2018-04-04T13:17:42.981Z,11440
2018-04-04T13:18:42.982Z,11336
2018-04-04T13:19:42.943Z,11560
2018-04-04T13:20:42.928Z,12220
2018-04-04T13:21:42.909Z,13144
2018-04-04T13:22:42.646Z,14016
2018-04-04T13:23:42.980Z,14440
2018-04-04T13:24:42.857Z,14200
2018-04-04T13:25:42.850Z,13504
2018-04-04T13:26:42.325Z,12864
2018-04-04T13:27:42.809Z,12636
2018-04-04T13:28:42.790Z,12848
2018-04-04T13:29:42.778Z,13368
2018-04-04T13:30:42.755Z,13788
2018-04-04T13:31:42.739Z,13936
2018-04-04T13:32:42.471Z,13728
2018-04-04T13:33:42.217Z,13380
2018-04-04T13:34:42.686Z,12988
2018-04-04T13:35:42.674Z,12508